ADDS METAR Data INFO
IDs: Format: Raw Decoded Include TAF

Data at: 0752 UTC 23 Jul 2018

KGWB 230735Z AUTO 00000KT 10SM OVC055 17/16 A2988 RMK AO2
KGWB 230715Z AUTO 29003KT 10SM OVC049 17/16 A2988 RMK AO2
KGWB 230655Z AUTO 00000KT 10SM OVC049 17/16 A2988 RMK AO2
KGWB 230635Z AUTO 00000KT 10SM BKN047 BKN050 OVC120 17/16 A2988 RMK AO2
KGWB 230615Z AUTO 00000KT 10SM SCT048 BKN055 OVC110 17/16 A2988 RMK AO2
KGWB 230555Z AUTO 00000KT 10SM SCT044 BKN055 BKN075 17/16 A2988 RMK AO2
KGWB 230535Z AUTO 00000KT 10SM SCT055 OVC075 17/16 A2988 RMK AO2
KGWB 230515Z AUTO 00000KT 10SM OVC075 17/16 A2989 RMK AO2
KGWB 230455Z AUTO 00000KT 10SM OVC075 18/15 A2989 RMK AO2
KGWB 230435Z AUTO 30003KT 10SM OVC075 18/16 A2990 RMK AO2
KGWB 230415Z AUTO 00000KT 10SM OVC075 18/15 A2990 RMK AO2
KGWB 230355Z AUTO 00000KT 10SM BKN075 18/15 A2991 RMK AO2
KGWB 230335Z AUTO 00000KT 10SM CLR 18/15 A2990 RMK AO2
KGWB 230315Z AUTO 00000KT 10SM SCT046 SCT050 18/15 A2991 RMK AO2
KGWB 230255Z AUTO 02003KT 10SM SCT040 BKN045 OVC050 19/14 A2991 RMK AO2
KGWB 230235Z AUTO 02005KT 10SM BKN040 OVC045 19/14 A2991 RMK AO2
KGWB 230215Z AUTO 03004KT 10SM OVC048 19/14 A2991 RMK AO2
KGWB 230155Z AUTO 01004KT 10SM OVC048 19/14 A2990 RMK AO2
KGWB 230135Z AUTO 01003KT 10SM SCT048 BKN110 19/14 A2990 RMK AO2
KGWB 230115Z AUTO 03004KT 10SM SCT048 SCT110 19/14 A2989 RMK AO2
KGWB 230055Z AUTO 02003KT 10SM SCT046 19/14 A2988 RMK AO2
KGWB 230035Z AUTO 02003KT 10SM SCT120 20/14 A2988 RMK AO2
KGWB 230015Z AUTO 04005KT 10SM BKN120 20/14 A2987 RMK AO2
KGWB 222355Z AUTO 04005KT 10SM SCT060 SCT120 20/15 A2987 RMK AO2
KGWB 222335Z AUTO 02003KT 10SM CLR 21/15 A2986 RMK AO2
KGWB 222315Z AUTO 04004KT 10SM CLR 21/14 A2986 RMK AO2
KGWB 222255Z AUTO 04007KT 10SM CLR 21/15 A2986 RMK AO2
KGWB 222235Z AUTO 05007KT 10SM CLR 21/15 A2985 RMK AO2
KGWB 222215Z AUTO 03008KT 10SM CLR 21/16 A2985 RMK AO2
KGWB 222200Z AUTO 04007KT 10SM SCT041 21/16 A2985 RMK AO2
KGWB 222135Z AUTO 06010G14KT 10SM BKN038 OVC045 21/16 A2985 RMK AO2
KGWB 222115Z AUTO 06012G16KT 10SM SCT029 SCT035 BKN041 21/16 A2985 RMK AO2
KGWB 222055Z AUTO 07011G16KT 10SM SCT029 BKN036 BKN042 21/17 A2985 RMK AO2
KGWB 222035Z AUTO 05009KT 10SM SCT027 SCT034 SCT042 22/17 A2984 RMK AO2
KGWB 222015Z AUTO 06011KT 10SM SCT028 SCT035 SCT042 22/17 A2983 RMK AO2
KGWB 221955Z AUTO 06013G17KT 10SM SCT037 BKN042 BKN050 22/17 A2983 RMK AO2
KGWB 221935Z AUTO 06010KT 10SM SCT039 BKN050 BKN070 22/18 A2983 RMK AO2
KGWB 221915Z AUTO 07013G16KT 10SM SCT021 SCT026 BKN039 23/18 A2983 RMK AO2
KGWB 221855Z AUTO 06009KT 10SM SCT026 SCT050 SCT120 24/19 A2982 RMK AO2
KGWB 221835Z AUTO 03007KT 10SM SCT025 SCT030 SCT040 23/18 A2982 RMK AO2
KGWB 221815Z AUTO 05008KT 10SM SCT026 SCT030 BKN110 23/18 A2983 RMK AO2
KGWB 221755Z AUTO 06011KT 10SM SCT026 SCT034 BKN110 23/18 A2982 RMK AO2
KGWB 221735Z AUTO 07011KT 10SM SCT028 BKN034 23/18 A2982 RMK AO2
KGWB 221715Z AUTO 06010G14KT 10SM SCT027 SCT034 SCT040 25/19 A2982 RMK AO2
KGWB 221655Z AUTO 07009KT 10SM SCT022 SCT033 SCT040 24/20 A2981 RMK AO2
KGWB 221635Z AUTO 05007KT 10SM SCT019 SCT026 SCT033 23/20 A2982 RMK AO2
KGWB 221620Z AUTO 06008KT 10SM SCT019 SCT031 24/21 A2981 RMK AO2
KGWB 221555Z AUTO 05012G16KT 10SM SCT016 SCT024 BKN085 22/21 A2981 RMK AO2
KGWB 221535Z AUTO 06009KT 10SM SCT018 SCT024 SCT035 23/20 A2981 RMK AO2
KGWB 221515Z AUTO 04011KT 10SM SCT016 SCT024 SCT038 23/20 A2980 RMK AO2
KGWB 221455Z AUTO 05008KT 10SM SCT014 SCT020 23/20 A2980 RMK AO2
KGWB 221435Z AUTO 04007KT 10SM SCT016 BKN023 22/20 A2980 RMK AO2
KGWB 221415Z AUTO 03006KT 10SM SCT013 BKN018 BKN025 22/20 A2980 RMK AO2
KGWB 221355Z AUTO 05005KT 10SM BKN013 BKN020 BKN027 22/20 A2980 RMK AO2
KGWB 221335Z AUTO 05006KT 10SM SCT013 BKN020 BKN065 21/20 A2980 RMK AO2
KGWB 221315Z AUTO 04008KT 10SM SCT010 BKN015 BKN021 21/20 A2979 RMK AO2
KGWB 221255Z AUTO 04008KT 10SM OVC010 21/20 A2979 RMK AO2
KGWB 221235Z AUTO 05007KT 10SM SCT008 BKN012 BKN016 21/20 A2978 RMK AO2
KGWB 221215Z AUTO 03007KT 7SM OVC008 20/20 A2978 RMK AO2
KGWB 221155Z AUTO 04006KT 7SM OVC008 20/20 A2978 RMK AO2
KGWB 221135Z AUTO 04005KT 5SM BR BKN008 OVC018 20/20 A2977 RMK AO2
KGWB 221115Z AUTO 04005KT 5SM BR SCT006 BKN009 OVC016 20/20 A2977 RMK AO2
KGWB 221055Z AUTO 03006KT 4SM BR SCT005 SCT009 OVC016 20/20 A2976 RMK AO2
KGWB 221035Z AUTO 03004KT 5SM BR BKN007 BKN014 OVC070 20/19 A2976 RMK AO2
KGWB 221015Z AUTO 03006KT 5SM BR BKN007 BKN012 20/19 A2975 RMK AO2
KGWB 220955Z AUTO 03006KT 5SM BR OVC007 20/19 A2975 RMK AO2
KGWB 220935Z AUTO 03007KT 5SM BR OVC007 20/20 A2975 RMK AO2
KGWB 220915Z AUTO 02006KT 7SM OVC007 20/20 A2975 RMK AO2
KGWB 220855Z AUTO 02005KT 5SM BR BKN007 20/20 A2975 RMK AO2
KGWB 220835Z AUTO 03006KT 5SM BR SCT007 20/20 A2974 RMK AO2
KGWB 220815Z AUTO 05005KT 7SM OVC007 20/20 A2973 RMK AO2
KGWB 220755Z AUTO 05006KT 7SM OVC007 20/20 A2974 RMK AO2
KGWB 220735Z AUTO 04007KT 5SM BR OVC007 20/20 A2974 RMK AO2
KGWB 220715Z AUTO 04004KT 7SM OVC007 20/20 A2974 RMK AO2
KGWB 220655Z AUTO 03006KT 7SM BKN007 OVC011 20/20 A2975 RMK AO2
KGWB 220635Z AUTO 03006KT 7SM OVC007 20/20 A2975 RMK AO2
KGWB 220615Z AUTO 03005KT 7SM OVC007 20/20 A2975 RMK AO2
KGWB 220555Z AUTO 04006KT 7SM OVC007 20/20 A2975 RMK AO2
KGWB 220535Z AUTO 04004KT 7SM BKN007 BKN024 BKN039 20/20 A2975 RMK AO2
KGWB 220515Z AUTO 04004KT 7SM SCT038 SCT046 BKN075 20/20 A2976 RMK AO2
KGWB 220455Z AUTO 04004KT 10SM OVC037 20/20 A2976 RMK AO2
KGWB 220435Z AUTO 04005KT 10SM SCT031 BKN037 BKN100 20/20 A2976 RMK AO2
KGWB 220415Z AUTO 04003KT 7SM SCT021 SCT025 BKN033 20/20 A2976 RMK AO2
KGWB 220355Z AUTO 04004KT 10SM SCT021 SCT065 BKN100 20/20 A2977 RMK AO2
KGWB 220335Z AUTO 02003KT 10SM SCT040 BKN050 OVC120 20/20 A2977 RMK AO2
KGWB 220315Z AUTO 04004KT 10SM SCT013 BKN041 OVC048 20/20 A2978 RMK AO2
KGWB 220255Z AUTO 02003KT 10SM OVC046 20/20 A2977 RMK AO2
KGWB 220235Z AUTO 00000KT 10SM SCT033 OVC044 20/20 A2977 RMK AO2
KGWB 220215Z AUTO 00000KT 10SM SCT007 BKN033 BKN040 20/20 A2976 RMK AO2
KGWB 220155Z AUTO 05003KT 7SM +RA BKN007 BKN028 OVC070 20/20 A2977 RMK AO2
KGWB 220135Z AUTO 06003KT 10SM BKN009 BKN014 OVC070 20/20 A2976 RMK AO2
KGWB 220115Z AUTO 03003KT 10SM -RA OVC013 20/20 A2975 RMK AO2
KGWB 220055Z AUTO 00000KT 10SM OVC017 21/20 A2975 RMK AO2
KGWB 220035Z AUTO 09004KT 10SM SCT014 SCT019 OVC070 21/20 A2974 RMK AO2
KGWB 220015Z AUTO 08005KT 10SM SCT015 BKN022 OVC070 21/20 A2974 RMK AO2
KGWB 212355Z AUTO 05005KT 10SM SCT021 BKN037 OVC055 21/20 A2973 RMK AO2
KGWB 212335Z AUTO 04005KT 10SM -DZ SCT014 BKN020 OVC029 21/20 A2973 RMK AO2
KGWB 212315Z AUTO 05005KT 5SM DZ SCT012 OVC024 21/21 A2973 RMK AO2
KGWB 212255Z AUTO 06005KT 10SM RA SCT013 BKN022 OVC090 22/20 A2973 RMK AO2
KGWB 212235Z AUTO 08008KT 10SM SCT027 SCT038 BKN060 23/21 A2972 RMK AO2
KGWB 212215Z AUTO 07006KT 10SM SCT019 BKN030 BKN037 22/20 A2972 RMK AO2
KGWB 212155Z AUTO 08007KT 10SM SCT017 SCT023 BKN070 23/20 A2972 RMK AO2
KGWB 212135Z AUTO 07006KT 10SM SCT008 SCT019 SCT026 23/20 A2971 RMK AO2
KGWB 212115Z AUTO 08005KT 10SM SCT008 SCT019 BKN027 22/20 A2971 RMK AO2
KGWB 212055Z AUTO 08005KT 10SM SCT010 SCT027 BKN041 23/21 A2971 RMK AO2
KGWB 212035Z AUTO 09006KT 7SM SCT010 SCT021 BKN034 22/21 A2971 RMK AO2
KGWB 212015Z AUTO 08006KT 10SM SCT010 SCT023 BKN028 22/21 A2971 RMK AO2
KGWB 211955Z AUTO 09004KT 10SM SCT008 BKN025 OVC041 22/20 A2972 RMK AO2